createdAt,value
2022-08-17T00:00:43.993Z,24.83
2022-08-17T00:03:14.439Z,24.90
2022-08-17T00:05:44.291Z,24.90
2022-08-17T00:08:14.295Z,24.84
2022-08-17T00:10:44.450Z,24.95
2022-08-17T00:13:17.313Z,24.80
2022-08-17T00:15:45.900Z,24.82
2022-08-17T00:18:58.391Z,24.70
2022-08-17T00:21:04.723Z,24.87
2022-08-17T00:23:39.672Z,24.80
2022-08-17T00:26:34.874Z,24.63
2022-08-17T00:29:07.370Z,24.73
2022-08-17T00:31:37.020Z,24.58
2022-08-17T00:34:06.222Z,24.54
2022-08-17T00:36:34.544Z,24.61
2022-08-17T00:39:02.972Z,24.40
2022-08-17T00:41:35.761Z,24.54
2022-08-17T00:44:05.197Z,24.47
2022-08-17T00:46:34.871Z,24.55
2022-08-17T00:49:03.326Z,24.54
2022-08-17T00:51:32.412Z,24.49
2022-08-17T00:54:05.762Z,24.49
2022-08-17T00:56:36.141Z,24.44
2022-08-17T00:59:05.458Z,24.34
2022-08-17T01:01:33.972Z,24.42
2022-08-17T01:04:02.386Z,24.33
2022-08-17T01:06:30.986Z,24.32
2022-08-17T01:08:59.661Z,24.33
2022-08-17T01:11:28.043Z,24.34
2022-08-17T01:13:58.014Z,24.34
2022-08-17T01:16:27.395Z,24.31
2022-08-17T01:18:56.891Z,24.45
2022-08-17T01:21:28.615Z,24.42
2022-08-17T01:23:58.409Z,24.28
2022-08-17T01:26:27.120Z,24.05
2022-08-17T01:28:56.005Z,24.26
2022-08-17T01:31:25.621Z,24.01
2022-08-17T01:33:54.616Z,23.72
2022-08-17T01:36:23.092Z,23.75
2022-08-17T01:38:51.476Z,24.12
2022-08-17T01:41:24.197Z,24.13
2022-08-17T01:43:53.795Z,24.03
2022-08-17T01:46:23.237Z,24.12
2022-08-17T01:48:51.715Z,24.04
2022-08-17T01:51:20.429Z,24.23
2022-08-17T01:53:50.164Z,24.23
2022-08-17T01:56:19.925Z,24.20
2022-08-17T01:58:50.151Z,24.23
2022-08-17T02:01:19.157Z,24.08
2022-08-17T02:03:56.121Z,23.83
2022-08-17T02:06:30.042Z,24.07
2022-08-17T02:09:03.271Z,23.97
2022-08-17T02:11:32.381Z,23.76
2022-08-17T02:14:04.052Z,23.88
2022-08-17T02:16:36.828Z,23.81
2022-08-17T02:19:07.290Z,23.83
2022-08-17T02:21:36.097Z,23.91
2022-08-17T02:24:04.867Z,23.78
2022-08-17T02:26:33.477Z,23.76
2022-08-17T02:29:04.152Z,23.84
2022-08-17T02:31:34.956Z,23.70
2022-08-17T02:34:05.006Z,23.77
2022-08-17T02:36:34.371Z,23.64
2022-08-17T02:39:02.994Z,23.75
2022-08-17T02:41:31.310Z,23.70
2022-08-17T02:43:59.953Z,23.68
2022-08-17T02:46:30.535Z,23.56
2022-08-17T02:48:58.905Z,23.59
2022-08-17T02:51:27.702Z,23.67
2022-08-17T02:54:03.909Z,23.59
2022-08-17T02:56:44.948Z,23.37
2022-08-17T02:59:13.489Z,23.53
2022-08-17T03:01:43.305Z,23.41
2022-08-17T03:04:11.975Z,23.32
2022-08-17T03:06:40.307Z,23.24
2022-08-17T03:09:08.901Z,22.91
2022-08-17T03:11:37.593Z,23.14
2022-08-17T03:14:05.911Z,23.20
2022-08-17T03:16:34.212Z,23.04
2022-08-17T03:19:05.725Z,23.06
2022-08-17T03:21:34.075Z,23.05
2022-08-17T03:24:02.705Z,23.09
2022-08-17T03:26:37.594Z,23.05
2022-08-17T03:29:06.222Z,23.02
2022-08-17T03:31:34.554Z,23.05
2022-08-17T03:34:07.606Z,22.92
2022-08-17T03:36:36.212Z,22.69
2022-08-17T03:39:04.699Z,22.73
2022-08-17T03:41:33.533Z,22.92
2022-08-17T03:44:01.874Z,22.69
2022-08-17T03:46:47.655Z,22.91
2022-08-17T03:49:35.187Z,22.88
2022-08-17T03:52:20.943Z,22.89
2022-08-17T03:55:07.405Z,22.86
2022-08-17T03:57:36.877Z,22.69
2022-08-17T04:00:06.044Z,22.73
2022-08-17T04:02:40.454Z,22.79
2022-08-17T04:05:10.785Z,22.86
2022-08-17T04:07:39.120Z,22.87
2022-08-17T04:10:08.042Z,22.88
2022-08-17T04:12:44.620Z,22.82
2022-08-17T04:15:13.904Z,22.87
2022-08-17T04:17:44.281Z,22.94
2022-08-17T04:20:15.145Z,22.84
2022-08-17T04:22:56.111Z,22.90
2022-08-17T04:25:25.513Z,23.04
2022-08-17T04:27:54.132Z,22.96
2022-08-17T04:30:22.672Z,23.14
2022-08-17T04:33:04.552Z,23.14
2022-08-17T04:35:37.898Z,23.27
2022-08-17T04:38:07.682Z,23.38
2022-08-17T04:40:54.456Z,23.36
2022-08-17T04:43:24.893Z,23.43
2022-08-17T04:45:55.496Z,23.50
2022-08-17T04:48:36.532Z,23.37
2022-08-17T04:51:10.514Z,23.55
2022-08-17T04:53:39.763Z,23.73
2022-08-17T04:56:16.077Z,23.73
2022-08-17T04:58:45.666Z,23.74
2022-08-17T05:01:14.361Z,23.62
2022-08-17T05:03:42.929Z,23.83
2022-08-17T05:06:12.629Z,23.88
2022-08-17T05:08:41.312Z,23.93
2022-08-17T05:11:09.644Z,24.13
2022-08-17T05:13:38.037Z,24.29
2022-08-17T05:16:09.102Z,24.52
2022-08-17T05:18:38.934Z,24.55
2022-08-17T05:21:07.796Z,24.39
2022-08-17T05:23:42.844Z,24.65
2022-08-17T05:26:19.819Z,25.09
2022-08-17T05:28:57.221Z,25.41
2022-08-17T05:31:28.770Z,25.48
2022-08-17T05:33:57.214Z,25.48
2022-08-17T05:36:42.446Z,25.62
2022-08-17T05:39:16.707Z,26.46
2022-08-17T05:41:46.658Z,26.99
2022-08-17T05:44:15.284Z,27.46
2022-08-17T05:46:45.303Z,27.69
2022-08-17T05:49:15.359Z,27.86
2022-08-17T05:51:48.753Z,28.13
2022-08-17T05:54:33.900Z,28.16
2022-08-17T05:57:09.339Z,28.28
2022-08-17T05:59:40.518Z,28.19
2022-08-17T06:02:11.695Z,28.04
2022-08-17T06:04:45.662Z,27.86
2022-08-17T06:07:15.613Z,27.92
2022-08-17T06:09:47.073Z,27.66
2022-08-17T06:12:34.396Z,27.58
2022-08-17T06:15:07.472Z,27.50
2022-08-17T06:17:35.835Z,27.55
2022-08-17T06:20:07.003Z,27.32
2022-08-17T06:22:37.398Z,27.54
2022-08-17T06:25:10.057Z,27.39
2022-08-17T06:27:39.801Z,27.51
2022-08-17T06:30:09.949Z,27.61
2022-08-17T06:32:39.110Z,27.53
2022-08-17T06:35:08.624Z,27.48
2022-08-17T06:37:48.952Z,27.43
2022-08-17T06:40:23.576Z,27.66
2022-08-17T06:43:05.595Z,27.70
2022-08-17T06:45:37.094Z,27.84
2022-08-17T06:48:07.520Z,27.74
2022-08-17T06:50:37.639Z,27.81
2022-08-17T06:53:06.968Z,27.77
2022-08-17T06:55:38.526Z,28.00
2022-08-17T06:58:15.891Z,28.17
2022-08-17T07:00:46.166Z,28.26
2022-08-17T07:03:16.404Z,28.34
2022-08-17T07:05:45.963Z,28.55
2022-08-17T07:08:18.629Z,28.60
2022-08-17T07:10:50.300Z,28.28
2022-08-17T07:13:25.538Z,28.42
2022-08-17T07:15:57.205Z,28.73
2022-08-17T07:18:26.561Z,29.12
2022-08-17T07:20:56.259Z,29.25
2022-08-17T07:23:26.703Z,29.06
2022-08-17T07:25:58.114Z,29.06
2022-08-17T07:28:27.190Z,29.20
2022-08-17T07:30:55.715Z,29.38
2022-08-17T07:33:25.767Z,29.36
2022-08-17T07:35:54.667Z,29.50
2022-08-17T07:38:26.841Z,29.56
2022-08-17T07:41:05.223Z,29.58
2022-08-17T07:43:33.943Z,29.59
2022-08-17T07:46:25.266Z,29.72
2022-08-17T07:48:54.531Z,29.94
2022-08-17T07:51:27.809Z,29.81
2022-08-17T07:54:13.091Z,30.01
2022-08-17T07:56:46.012Z,30.39
2022-08-17T07:59:18.099Z,30.12
2022-08-17T08:02:03.569Z,30.39
2022-08-17T08:04:59.282Z,30.56
2022-08-17T08:07:25.722Z,30.64
2022-08-17T08:10:01.338Z,30.73
2022-08-17T08:12:33.809Z,30.70
2022-08-17T08:15:04.688Z,31.09
2022-08-17T08:17:35.781Z,31.10
2022-08-17T08:20:51.080Z,31.09
2022-08-17T08:22:57.538Z,31.21
2022-08-17T08:25:28.828Z,30.98
2022-08-17T08:28:10.975Z,31.09
2022-08-17T08:30:42.576Z,31.36
2022-08-17T08:33:29.470Z,31.24
2022-08-17T08:35:59.903Z,31.30
2022-08-17T08:38:30.909Z,31.15
2022-08-17T08:41:02.801Z,31.29
2022-08-17T08:43:36.433Z,31.57
2022-08-17T08:46:06.390Z,31.61
2022-08-17T08:48:58.207Z,31.59
2022-08-17T08:51:31.211Z,31.54
2022-08-17T08:54:01.084Z,31.67
2022-08-17T08:56:32.696Z,31.95
2022-08-17T08:59:03.570Z,31.81
2022-08-17T09:01:34.815Z,32.32
2022-08-17T09:04:25.274Z,32.00
2022-08-17T09:07:01.499Z,32.28
2022-08-17T09:09:36.854Z,32.17
2022-08-17T09:12:09.042Z,32.34
2022-08-17T09:14:45.073Z,32.11
2022-08-17T09:17:18.323Z,32.23
2022-08-17T09:19:47.920Z,32.28
2022-08-17T09:22:21.479Z,32.38
2022-08-17T09:24:50.551Z,32.46
2022-08-17T09:27:19.922Z,32.47
2022-08-17T09:29:50.902Z,32.26
2022-08-17T09:32:20.766Z,32.59
2022-08-17T09:34:50.913Z,32.54
2022-08-17T09:37:22.899Z,32.55
2022-08-17T09:39:52.927Z,32.57
2022-08-17T09:42:23.613Z,32.59
2022-08-17T09:44:55.433Z,32.30
2022-08-17T09:47:26.359Z,32.51
2022-08-17T09:49:55.334Z,32.75
2022-08-17T09:52:24.833Z,32.81
2022-08-17T09:54:53.732Z,32.70
2022-08-17T09:57:30.226Z,32.89
2022-08-17T10:00:18.793Z,33.10
2022-08-17T10:02:56.053Z,33.12
2022-08-17T10:05:25.940Z,33.22
2022-08-17T10:07:56.463Z,33.29
2022-08-17T10:10:26.660Z,33.52
2022-08-17T10:12:56.655Z,33.28
2022-08-17T10:15:27.600Z,33.42
2022-08-17T10:18:21.371Z,33.86
2022-08-17T10:21:13.699Z,33.17
2022-08-17T10:23:59.750Z,33.19
2022-08-17T10:26:28.517Z,33.00
2022-08-17T10:29:16.892Z,32.86
2022-08-17T10:31:46.193Z,33.25
2022-08-17T10:34:23.019Z,33.76
2022-08-17T10:36:54.756Z,34.02
2022-08-17T10:39:25.613Z,33.94
2022-08-17T10:41:54.898Z,34.06
2022-08-17T10:44:38.282Z,34.01
2022-08-17T10:47:09.849Z,34.00
2022-08-17T10:49:44.276Z,33.68
2022-08-17T10:52:27.804Z,33.67
2022-08-17T10:55:12.157Z,33.97
2022-08-17T10:57:41.940Z,34.13
2022-08-17T11:00:27.899Z,34.04
2022-08-17T11:02:57.552Z,33.85
2022-08-17T11:05:44.379Z,34.20
2022-08-17T11:08:23.420Z,34.58
2022-08-17T11:10:59.343Z,34.71
2022-08-17T11:13:31.104Z,34.71
2022-08-17T11:16:08.105Z,35.04
2022-08-17T11:18:52.654Z,34.73
2022-08-17T11:21:39.309Z,34.68
2022-08-17T11:24:18.386Z,34.40
2022-08-17T11:27:01.394Z,34.32
2022-08-17T11:29:31.397Z,34.67
2022-08-17T11:32:02.172Z,34.87
2022-08-17T11:34:31.725Z,35.28
2022-08-17T11:37:05.726Z,35.07
2022-08-17T11:39:52.368Z,35.02
2022-08-17T11:42:30.648Z,34.94
2022-08-17T11:44:59.899Z,34.93
2022-08-17T11:48:08.982Z,34.91
2022-08-17T11:50:56.462Z,35.00
2022-08-17T11:53:43.940Z,35.17
2022-08-17T11:56:13.326Z,35.23
2022-08-17T11:58:43.373Z,35.17
2022-08-17T12:01:13.684Z,35.64
2022-08-17T12:03:54.166Z,35.79
2022-08-17T12:06:32.367Z,35.84
2022-08-17T12:09:02.922Z,35.58
2022-08-17T12:11:55.541Z,35.76
2022-08-17T12:14:40.155Z,35.75
2022-08-17T12:17:22.463Z,35.65
2022-08-17T12:20:12.173Z,36.17
2022-08-17T12:22:43.486Z,36.45
2022-08-17T12:25:12.766Z,36.37
2022-08-17T12:28:04.853Z,36.29
2022-08-17T12:30:35.766Z,36.75
2022-08-17T12:33:04.071Z,37.35
2022-08-17T12:35:34.542Z,37.37
2022-08-17T12:38:03.138Z,37.69
2022-08-17T12:40:32.481Z,37.85
2022-08-17T12:43:01.563Z,37.91
2022-08-17T12:45:30.870Z,38.14
2022-08-17T12:48:07.708Z,38.38
2022-08-17T12:50:37.173Z,38.14
2022-08-17T12:53:06.430Z,37.74
2022-08-17T12:55:36.176Z,37.97
2022-08-17T12:58:04.802Z,38.41
2022-08-17T13:00:34.738Z,38.52
2022-08-17T13:03:06.087Z,38.36
2022-08-17T13:05:36.623Z,38.22
2022-08-17T13:08:06.064Z,38.38
2022-08-17T13:10:35.359Z,38.66
2022-08-17T13:13:05.989Z,38.84
2022-08-17T13:15:36.892Z,38.60
2022-08-17T13:18:08.012Z,37.95
2022-08-17T13:20:36.795Z,37.70
2022-08-17T13:23:11.992Z,37.94
2022-08-17T13:25:41.236Z,38.54
2022-08-17T13:28:17.608Z,38.83
2022-08-17T13:31:13.316Z,39.12
2022-08-17T13:33:44.976Z,39.31
2022-08-17T13:36:19.378Z,39.53
2022-08-17T13:38:59.895Z,39.70
2022-08-17T13:41:33.638Z,39.04
2022-08-17T13:44:02.048Z,39.13
2022-08-17T13:46:32.153Z,39.26
2022-08-17T13:49:05.114Z,39.50
2022-08-17T13:51:35.308Z,39.18
2022-08-17T13:54:19.383Z,39.44
2022-08-17T13:56:51.749Z,39.44
2022-08-17T13:59:53.092Z,39.33
2022-08-17T14:02:15.611Z,38.88
2022-08-17T14:04:46.329Z,37.89
2022-08-17T14:07:28.984Z,38.20
2022-08-17T14:09:59.137Z,38.63
2022-08-17T14:12:28.488Z,39.23
2022-08-17T14:14:57.374Z,39.13
2022-08-17T14:17:26.365Z,39.32
2022-08-17T14:19:56.726Z,39.85
2022-08-17T14:22:27.026Z,39.91
2022-08-17T14:24:55.659Z,40.14
2022-08-17T14:27:26.342Z,40.12
2022-08-17T14:29:54.851Z,39.63
2022-08-17T14:32:24.829Z,39.15
2022-08-17T14:34:53.408Z,39.26
2022-08-17T14:37:26.340Z,39.62
2022-08-17T14:39:56.300Z,39.89
2022-08-17T14:42:26.319Z,40.05
2022-08-17T14:44:55.561Z,40.30
2022-08-17T14:47:23.913Z,40.45
2022-08-17T14:49:52.246Z,40.43
2022-08-17T14:52:24.101Z,40.27
2022-08-17T14:54:52.934Z,40.49
2022-08-17T14:57:34.326Z,40.47
2022-08-17T15:00:03.516Z,40.69
2022-08-17T15:02:32.200Z,40.15
2022-08-17T15:05:00.807Z,39.79
2022-08-17T15:07:31.385Z,39.75
2022-08-17T15:10:01.473Z,39.52
2022-08-17T15:12:33.146Z,39.44
2022-08-17T15:15:04.911Z,39.28
2022-08-17T15:17:44.503Z,39.22
2022-08-17T15:20:15.404Z,39.15
2022-08-17T15:22:45.684Z,39.17
2022-08-17T15:25:14.574Z,39.40
2022-08-17T15:27:42.940Z,39.43
2022-08-17T15:30:11.836Z,39.45
2022-08-17T15:32:41.172Z,39.44
2022-08-17T15:35:19.450Z,39.35
2022-08-17T15:37:58.188Z,38.94
2022-08-17T15:40:26.752Z,38.78
2022-08-17T15:42:55.137Z,38.58
2022-08-17T15:45:24.870Z,37.85
2022-08-17T15:47:53.436Z,38.12
2022-08-17T15:50:21.916Z,38.35
2022-08-17T15:52:55.047Z,38.59
2022-08-17T15:55:24.828Z,38.44
2022-08-17T15:57:53.595Z,38.46
2022-08-17T16:00:28.170Z,38.74
2022-08-17T16:03:45.049Z,38.91
2022-08-17T16:05:45.240Z,39.05
2022-08-17T16:08:20.715Z,39.19
2022-08-17T16:10:51.202Z,38.91
2022-08-17T16:13:19.988Z,38.30
2022-08-17T16:15:56.929Z,38.42
2022-08-17T16:18:26.559Z,38.34
2022-08-17T16:20:55.168Z,38.16
2022-08-17T16:23:23.886Z,37.77
2022-08-17T16:25:54.516Z,37.72
2022-08-17T16:28:23.338Z,37.39
2022-08-17T16:31:08.190Z,37.12
2022-08-17T16:33:39.376Z,36.88
2022-08-17T16:36:08.498Z,36.68
2022-08-17T16:38:37.197Z,36.64
2022-08-17T16:41:07.116Z,36.40
2022-08-17T16:43:36.029Z,36.21
2022-08-17T16:46:04.371Z,36.24
2022-08-17T16:48:32.686Z,36.21
2022-08-17T16:51:03.504Z,36.12
2022-08-17T16:53:32.729Z,35.95
2022-08-17T16:56:01.339Z,35.66
2022-08-17T16:58:31.035Z,35.75
2022-08-17T17:00:59.709Z,35.75
2022-08-17T17:03:28.864Z,35.24
2022-08-17T17:06:00.497Z,35.45
2022-08-17T17:08:32.660Z,35.31
2022-08-17T17:11:03.951Z,35.37
2022-08-17T17:13:40.467Z,35.15
2022-08-17T17:16:13.386Z,35.01
2022-08-17T17:18:42.722Z,34.96
2022-08-17T17:21:11.886Z,35.16
2022-08-17T17:23:42.617Z,35.01
2022-08-17T17:26:36.141Z,34.86
2022-08-17T17:29:10.406Z,34.82
2022-08-17T17:31:40.987Z,34.58
2022-08-17T17:34:09.294Z,34.37
2022-08-17T17:36:40.783Z,34.34
2022-08-17T17:39:11.257Z,34.18
2022-08-17T17:41:42.454Z,33.88
2022-08-17T17:44:13.285Z,33.74
2022-08-17T17:46:47.089Z,33.57
2022-08-17T17:49:16.964Z,33.42
2022-08-17T17:52:08.500Z,33.38
2022-08-17T17:54:40.206Z,33.22
2022-08-17T17:57:09.855Z,32.96
2022-08-17T17:59:44.035Z,32.77
2022-08-17T18:02:36.509Z,32.55
2022-08-17T18:05:09.531Z,32.16
2022-08-17T18:07:39.215Z,32.17
2022-08-17T18:10:19.497Z,32.09
2022-08-17T18:12:59.884Z,32.08
2022-08-17T18:15:31.498Z,31.84
2022-08-17T18:18:00.673Z,31.63
2022-08-17T18:20:43.134Z,31.57
2022-08-17T18:23:17.685Z,31.61
2022-08-17T18:25:47.487Z,31.43
2022-08-17T18:28:25.212Z,31.29
2022-08-17T18:31:12.465Z,31.21
2022-08-17T18:33:41.503Z,31.10
2022-08-17T18:36:10.887Z,31.22
2022-08-17T18:38:42.606Z,31.06
2022-08-17T18:41:24.351Z,31.02
2022-08-17T18:44:01.535Z,30.99
2022-08-17T18:46:33.224Z,30.95
2022-08-17T18:49:05.298Z,30.83
2022-08-17T18:51:42.397Z,30.69
2022-08-17T18:54:16.157Z,30.69
2022-08-17T18:56:45.301Z,30.54
2022-08-17T18:59:18.261Z,30.51
2022-08-17T19:02:10.266Z,30.50
2022-08-17T19:04:42.649Z,30.47
2022-08-17T19:07:25.180Z,30.46
2022-08-17T19:09:55.247Z,30.51
2022-08-17T19:12:27.315Z,30.43
2022-08-17T19:14:56.343Z,30.26
2022-08-17T19:17:27.096Z,30.18
2022-08-17T19:19:56.473Z,30.16
2022-08-17T19:22:29.161Z,30.13
2022-08-17T19:25:03.537Z,30.06
2022-08-17T19:27:41.982Z,29.95
2022-08-17T19:30:17.785Z,29.96
2022-08-17T19:32:48.104Z,29.90
2022-08-17T19:35:24.625Z,29.87
2022-08-17T19:37:56.728Z,29.93
2022-08-17T19:40:51.239Z,29.83
2022-08-17T19:43:20.798Z,29.83
2022-08-17T19:45:51.432Z,29.72
2022-08-17T19:48:25.034Z,29.72
2022-08-17T19:50:55.143Z,29.62
2022-08-17T19:53:41.741Z,29.26
2022-08-17T19:56:16.834Z,29.32
2022-08-17T19:58:49.171Z,29.32
2022-08-17T20:01:21.045Z,29.33
2022-08-17T20:03:55.068Z,29.32
2022-08-17T20:06:23.493Z,29.19
2022-08-17T20:08:55.142Z,29.31
2022-08-17T20:11:25.108Z,29.24
2022-08-17T20:13:56.298Z,29.04
2022-08-17T20:16:24.841Z,28.98
2022-08-17T20:18:59.697Z,28.93
2022-08-17T20:21:33.063Z,28.89
2022-08-17T20:24:03.033Z,28.83
2022-08-17T20:26:36.269Z,28.76
2022-08-17T20:29:09.905Z,28.80
2022-08-17T20:31:44.687Z,28.72
2022-08-17T20:34:34.855Z,28.72
2022-08-17T20:37:07.866Z,28.70
2022-08-17T20:39:38.863Z,28.60
2022-08-17T20:42:12.585Z,28.41
2022-08-17T20:44:41.729Z,28.46
2022-08-17T20:47:11.744Z,28.48
2022-08-17T20:49:47.233Z,28.39
2022-08-17T20:52:18.402Z,28.39
2022-08-17T20:54:48.506Z,28.31
2022-08-17T20:57:44.337Z,28.32
2022-08-17T21:00:16.612Z,28.32
2022-08-17T21:02:45.868Z,28.19
2022-08-17T21:05:35.664Z,28.21
2022-08-17T21:08:16.103Z,28.19
2022-08-17T21:10:46.536Z,28.23
2022-08-17T21:13:34.876Z,28.08
2022-08-17T21:16:06.341Z,27.86
2022-08-17T21:18:38.653Z,27.93
2022-08-17T21:21:15.412Z,27.87
2022-08-17T21:23:59.575Z,27.97
2022-08-17T21:26:31.054Z,27.77
2022-08-17T21:29:29.775Z,27.77
2022-08-17T21:32:19.884Z,27.85
2022-08-17T21:35:12.350Z,27.71
2022-08-17T21:37:41.987Z,27.74
2022-08-17T21:40:22.937Z,27.62
2022-08-17T21:42:52.774Z,27.62
2022-08-17T21:45:22.337Z,27.50
2022-08-17T21:47:51.050Z,27.48
2022-08-17T21:50:20.585Z,27.41
2022-08-17T21:52:49.633Z,27.37
2022-08-17T21:55:28.186Z,27.31
2022-08-17T21:58:14.178Z,27.41
2022-08-17T22:00:44.331Z,27.35
2022-08-17T22:03:23.632Z,27.17
2022-08-17T22:05:52.002Z,27.14
2022-08-17T22:08:22.301Z,27.01
2022-08-17T22:10:52.471Z,27.03
2022-08-17T22:13:21.608Z,27.04
2022-08-17T22:15:50.778Z,27.00
2022-08-17T22:18:20.302Z,26.91
2022-08-17T22:20:50.813Z,26.80
2022-08-17T22:23:40.928Z,26.83
2022-08-17T22:26:13.330Z,26.71
2022-08-17T22:28:43.284Z,26.59
2022-08-17T22:31:14.555Z,26.76
2022-08-17T22:33:44.501Z,26.80
2022-08-17T22:36:24.633Z,26.82
2022-08-17T22:38:53.934Z,26.68
2022-08-17T22:41:43.803Z,26.62
2022-08-17T22:44:31.642Z,26.60
2022-08-17T22:47:03.035Z,26.39
2022-08-17T22:49:33.523Z,26.40
2022-08-17T22:52:03.498Z,26.36
2022-08-17T22:54:49.279Z,26.45
2022-08-17T22:57:35.210Z,26.34
2022-08-17T23:00:03.737Z,26.27
2022-08-17T23:02:34.396Z,26.29
2022-08-17T23:05:24.076Z,26.29
2022-08-17T23:07:53.232Z,26.24
2022-08-17T23:10:21.576Z,26.20
2022-08-17T23:12:50.843Z,26.24
2022-08-17T23:15:19.691Z,26.29
2022-08-17T23:17:49.410Z,26.35
2022-08-17T23:20:17.910Z,26.28
2022-08-17T23:22:51.431Z,26.24
2022-08-17T23:25:24.807Z,26.05
2022-08-17T23:27:53.694Z,25.13
2022-08-17T23:30:30.443Z,25.73
2022-08-17T23:33:01.220Z,25.98
2022-08-17T23:35:40.097Z,25.87
2022-08-17T23:38:10.128Z,25.93
2022-08-17T23:40:39.603Z,25.93
2022-08-17T23:45:57.535Z,25.80
2022-08-17T23:48:32.528Z,25.89
2022-08-17T23:51:08.795Z,25.84
2022-08-17T23:53:37.355Z,25.88
2022-08-17T23:56:10.302Z,25.83
2022-08-17T23:58:39.515Z,25.88
